createdAt,value
2023-02-08T00:02:22.624Z,101906.90
2023-02-08T00:05:24.555Z,101913.11
2023-02-08T00:08:26.040Z,101911.16
2023-02-08T00:11:27.813Z,101913.16
2023-02-08T00:14:29.440Z,101917.46
2023-02-08T00:17:31.119Z,101919.57
2023-02-08T00:20:32.630Z,101919.13
2023-02-08T00:23:34.213Z,101914.63
2023-02-08T00:26:35.861Z,101917.69
2023-02-08T00:29:37.465Z,101917.69
2023-02-08T00:32:39.306Z,101922.15
2023-02-08T00:35:40.869Z,101918.47
2023-02-08T00:38:42.580Z,101914.77
2023-02-08T00:41:44.685Z,101915.65
2023-02-08T00:44:46.436Z,101920.28
2023-02-08T00:47:48.013Z,101922.49
2023-02-08T00:50:59.711Z,101921.67
2023-02-08T00:54:01.331Z,101922.62
2023-02-08T00:57:03.112Z,101922.77
2023-02-08T01:00:06.380Z,101924.84
2023-02-08T01:03:07.931Z,101929.73
2023-02-08T01:06:13.957Z,101932.09
2023-02-08T01:09:15.634Z,101934.89
2023-02-08T01:12:17.318Z,101933.33
2023-02-08T01:15:19.204Z,101936.65
2023-02-08T01:18:21.163Z,101936.55
2023-02-08T01:21:31.900Z,101935.84
2023-02-08T01:24:33.842Z,101936.39
2023-02-08T01:27:35.441Z,101938.30
2023-02-08T01:30:37.064Z,101936.89
2023-02-08T01:33:39.416Z,101938.45
2023-02-08T01:36:41.067Z,101937.14
2023-02-08T01:39:42.575Z,101935.36
2023-02-08T01:42:44.308Z,101937.27
2023-02-08T01:45:45.959Z,101941.02
2023-02-08T01:48:47.640Z,101937.12
2023-02-08T01:51:58.475Z,101936.56
2023-02-08T01:55:09.623Z,101940.22
2023-02-08T01:58:12.193Z,101942.45
2023-02-08T02:01:14.016Z,101940.48
2023-02-08T02:04:16.099Z,101941.55
2023-02-08T02:07:19.237Z,101943.42
2023-02-08T02:10:33.924Z,101946.91
2023-02-08T02:13:37.246Z,101948.96
2023-02-08T02:16:39.576Z,101952.58
2023-02-08T02:20:04.465Z,101950.75
2023-02-08T02:23:33.328Z,101951.13
2023-02-08T02:27:07.306Z,101950.25
2023-02-08T02:30:09.012Z,101953.82
2023-02-08T02:33:31.943Z,101956.20
2023-02-08T02:36:59.764Z,101955.53
2023-02-08T02:40:27.090Z,101951.92
2023-02-08T02:43:54.770Z,101946.55
2023-02-08T02:47:12.029Z,101949.83
2023-02-08T02:50:27.848Z,101956.89
2023-02-08T02:53:39.502Z,101958.88
2023-02-08T02:56:53.821Z,101961.73
2023-02-08T02:59:55.657Z,101967.66
2023-02-08T03:02:57.101Z,101969.05
2023-02-08T03:06:03.600Z,101972.59
2023-02-08T03:09:07.969Z,101974.30
2023-02-08T03:12:28.389Z,101974.84
2023-02-08T03:15:54.583Z,101986.13
2023-02-08T03:19:14.999Z,101988.77
2023-02-08T03:22:43.703Z,101990.92
2023-02-08T03:25:50.067Z,101989.54
2023-02-08T03:29:05.451Z,101992.10
2023-02-08T03:32:09.806Z,101996.48
2023-02-08T03:35:15.096Z,101990.50
2023-02-08T03:38:22.943Z,101992.11
2023-02-08T03:41:39.072Z,101993.70
2023-02-08T03:44:55.086Z,101988.89
2023-02-08T03:47:58.095Z,101984.98
2023-02-08T03:51:02.163Z,101977.11
2023-02-08T03:54:08.595Z,101965.41
2023-02-08T03:57:23.249Z,101964.57
2023-02-08T04:00:25.348Z,101976.91
2023-02-08T04:03:28.855Z,101978.55
2023-02-08T04:06:30.886Z,101983.06
2023-02-08T04:09:32.479Z,101987.77
2023-02-08T04:12:34.094Z,101988.79
2023-02-08T04:15:35.794Z,101988.04
2023-02-08T04:18:37.530Z,101983.77
2023-02-08T04:21:39.079Z,101981.52
2023-02-08T04:24:40.612Z,101973.35
2023-02-08T04:27:42.266Z,101982.33
2023-02-08T04:30:44.072Z,101993.45
2023-02-08T04:33:46.343Z,101996.91
2023-02-08T04:36:48.020Z,101992.39
2023-02-08T04:39:49.589Z,101996.77
2023-02-08T04:42:51.238Z,102000.36
2023-02-08T04:45:52.920Z,101997.31
2023-02-08T04:48:54.507Z,102000.89
2023-02-08T04:51:56.154Z,102003.03
2023-02-08T04:54:57.767Z,102001.94
2023-02-08T04:57:59.383Z,102003.45
2023-02-08T05:01:01.104Z,102001.20
2023-02-08T05:04:02.796Z,102010.06
2023-02-08T05:07:05.180Z,102013.29
2023-02-08T05:10:07.154Z,102009.39
2023-02-08T05:13:08.786Z,102016.58
2023-02-08T05:16:10.534Z,102019.56
2023-02-08T05:19:12.263Z,102023.33
2023-02-08T05:22:13.854Z,102030.92
2023-02-08T05:25:15.413Z,102031.62
2023-02-08T05:28:17.202Z,102032.89
2023-02-08T05:31:20.378Z,102039.74
2023-02-08T05:34:21.958Z,102044.52
2023-02-08T05:37:23.522Z,102038.67
2023-02-08T05:40:25.323Z,102041.20
2023-02-08T05:43:26.933Z,102040.71
2023-02-08T05:46:28.630Z,102052.86
2023-02-08T05:49:30.235Z,102054.04
2023-02-08T05:52:32.017Z,102059.64
2023-02-08T05:55:33.474Z,102061.85
2023-02-08T05:58:35.317Z,102062.32
2023-02-08T06:01:37.339Z,102064.80
2023-02-08T06:04:39.272Z,102066.87
2023-02-08T06:07:40.949Z,102063.30
2023-02-08T06:10:42.819Z,102058.63
2023-02-08T06:13:45.119Z,102064.23
2023-02-08T06:16:46.789Z,102061.66
2023-02-08T06:19:48.534Z,102064.02
2023-02-08T06:22:50.333Z,102074.27
2023-02-08T06:25:51.833Z,102080.70
2023-02-08T06:28:53.564Z,102095.48
2023-02-08T06:31:55.138Z,102095.60
2023-02-08T06:34:56.876Z,102092.29
2023-02-08T06:37:58.645Z,102100.35
2023-02-08T06:41:00.628Z,102113.08
2023-02-08T06:44:02.368Z,102117.88
2023-02-08T06:47:05.124Z,102115.30
2023-02-08T06:50:07.026Z,102120.08
2023-02-08T06:53:08.902Z,102116.79
2023-02-08T06:56:10.320Z,102114.48
2023-02-08T06:59:12.056Z,102115.59
2023-02-08T07:02:14.357Z,102115.02
2023-02-08T07:05:16.356Z,102122.11
2023-02-08T07:08:17.919Z,102122.80
2023-02-08T07:11:20.832Z,102129.21
2023-02-08T07:14:22.495Z,102130.55
2023-02-08T07:17:24.162Z,102127.34
2023-02-08T07:20:25.745Z,102124.91
2023-02-08T07:23:27.840Z,102128.97
2023-02-08T07:26:29.601Z,102130.52
2023-02-08T07:29:32.238Z,102132.59
2023-02-08T07:32:34.934Z,102131.14
2023-02-08T07:35:36.480Z,102132.94
2023-02-08T07:38:38.331Z,102133.77
2023-02-08T07:41:39.767Z,102131.73
2023-02-08T07:44:41.354Z,102132.31
2023-02-08T07:47:43.103Z,102122.41
2023-02-08T07:50:44.661Z,102123.65
2023-02-08T07:53:46.400Z,102132.19
2023-02-08T07:56:47.960Z,102131.91
2023-02-08T07:59:49.613Z,102130.58
2023-02-08T08:02:51.283Z,102130.41
2023-02-08T08:05:54.891Z,102135.70
2023-02-08T08:08:57.109Z,102139.99
2023-02-08T08:11:58.586Z,102141.41
2023-02-08T08:15:00.635Z,102140.28
2023-02-08T08:18:02.363Z,102145.70
2023-02-08T08:21:04.514Z,102155.05
2023-02-08T08:24:06.358Z,102160.81
2023-02-08T08:27:08.134Z,102161.30
2023-02-08T08:30:13.540Z,102156.44
2023-02-08T08:33:15.240Z,102162.52
2023-02-08T08:36:16.829Z,102162.27
2023-02-08T08:39:18.523Z,102166.52
2023-02-08T08:42:20.382Z,102173.70
2023-02-08T08:45:22.064Z,102172.66
2023-02-08T08:48:23.671Z,102178.20
2023-02-08T08:51:25.247Z,102179.90
2023-02-08T08:54:26.854Z,102176.39
2023-02-08T08:57:28.743Z,102180.08
2023-02-08T09:00:30.284Z,102181.66
2023-02-08T09:03:32.110Z,102175.86
2023-02-08T09:06:33.915Z,102180.55
2023-02-08T09:09:35.874Z,102184.52
2023-02-08T09:12:37.473Z,102177.34
2023-02-08T09:15:40.816Z,102184.36
2023-02-08T09:18:42.861Z,102189.94
2023-02-08T09:21:44.666Z,102187.13
2023-02-08T09:24:46.271Z,102187.62
2023-02-08T09:27:48.034Z,102199.52
2023-02-08T09:30:49.686Z,102198.58
2023-02-08T09:33:52.599Z,102194.30
2023-02-08T09:36:54.166Z,102192.55
2023-02-08T09:39:56.185Z,102196.15
2023-02-08T09:43:08.390Z,102194.36
2023-02-08T09:46:26.549Z,102192.94
2023-02-08T09:49:53.704Z,102194.69
2023-02-08T09:53:18.168Z,102189.35
2023-02-08T09:56:26.449Z,102187.43
2023-02-08T09:59:30.221Z,102192.77
2023-02-08T10:02:34.517Z,102191.15
2023-02-08T10:05:36.275Z,102185.77
2023-02-08T10:08:38.024Z,102182.75
2023-02-08T10:11:44.059Z,102179.73
2023-02-08T10:15:02.286Z,102181.76
2023-02-08T10:18:19.263Z,102181.20
2023-02-08T10:22:04.505Z,102172.09
2023-02-08T10:25:17.101Z,102171.86
2023-02-08T10:28:26.632Z,102165.66
2023-02-08T10:32:05.448Z,102167.27
2023-02-08T10:35:26.280Z,102171.23
2023-02-08T10:38:45.388Z,102165.31
2023-02-08T10:41:47.946Z,102167.63
2023-02-08T10:45:24.227Z,102168.19
2023-02-08T10:49:00.447Z,102160.98
2023-02-08T10:52:02.063Z,102154.75
2023-02-08T10:55:12.989Z,102156.08
2023-02-08T10:58:20.526Z,102156.30
2023-02-08T11:01:22.407Z,102147.98
2023-02-08T11:04:24.343Z,102144.33
2023-02-08T11:07:26.014Z,102142.71
2023-02-08T11:10:27.919Z,102148.10
2023-02-08T11:13:49.745Z,102145.03
2023-02-08T11:16:53.074Z,102138.63
2023-02-08T11:19:56.235Z,102135.52
2023-02-08T11:22:59.050Z,102146.91
2023-02-08T11:26:38.664Z,102152.98
2023-02-08T11:29:40.282Z,102151.30
2023-02-08T11:32:42.243Z,102147.20
2023-02-08T11:35:53.334Z,102147.91
2023-02-08T11:38:55.672Z,102141.70
2023-02-08T11:42:00.183Z,102142.55
2023-02-08T11:45:02.254Z,102141.62
2023-02-08T11:48:04.536Z,102134.17
2023-02-08T11:51:06.640Z,102133.81
2023-02-08T11:54:32.110Z,102137.82
2023-02-08T11:57:33.795Z,102134.04
2023-02-08T12:00:36.517Z,102128.05
2023-02-08T12:03:40.157Z,102130.38
2023-02-08T12:07:11.462Z,102130.96
2023-02-08T12:10:15.691Z,102129.48
2023-02-08T12:13:29.580Z,102126.91
2023-02-08T12:16:43.572Z,102123.43
2023-02-08T12:20:36.860Z,102123.54
2023-02-08T12:24:13.724Z,102120.75
2023-02-08T12:27:31.536Z,102114.66
2023-02-08T12:30:38.962Z,102103.08
2023-02-08T12:34:22.725Z,102095.63
2023-02-08T12:37:27.802Z,102094.94
2023-02-08T12:41:07.349Z,102095.89
2023-02-08T12:44:15.548Z,102092.80
2023-02-08T12:47:58.207Z,102092.98
2023-02-08T12:51:26.088Z,102088.17
2023-02-08T12:54:50.862Z,102084.45
2023-02-08T12:58:14.380Z,102080.04
2023-02-08T13:01:20.853Z,102080.62
2023-02-08T13:04:43.885Z,102075.44
2023-02-08T13:07:46.704Z,102067.54
2023-02-08T13:10:53.176Z,102066.54
2023-02-08T13:14:04.983Z,102058.80
2023-02-08T13:17:17.260Z,102057.20
2023-02-08T13:20:41.982Z,102057.34
2023-02-08T13:23:52.345Z,102056.17
2023-02-08T13:26:54.943Z,102059.67
2023-02-08T13:29:56.588Z,102056.40
2023-02-08T13:32:58.716Z,102052.27
2023-02-08T13:36:00.753Z,102057.17
2023-02-08T13:39:05.225Z,102055.37
2023-02-08T13:42:18.299Z,102053.65
2023-02-08T13:45:30.087Z,102056.36
2023-02-08T13:48:41.620Z,102055.11
2023-02-08T13:51:52.490Z,102057.79
2023-02-08T13:55:29.384Z,102057.04
2023-02-08T13:58:49.561Z,102056.37
2023-02-08T14:02:17.293Z,102055.14
2023-02-08T14:05:47.304Z,102060.83
2023-02-08T14:09:00.701Z,102070.66
2023-02-08T14:12:16.264Z,102067.92
2023-02-08T14:15:17.883Z,102066.23
2023-02-08T14:18:26.432Z,102071.34
2023-02-08T14:21:40.965Z,102069.98
2023-02-08T14:25:07.145Z,102068.44
2023-02-08T14:28:24.127Z,102068.67
2023-02-08T14:31:45.220Z,102063.64
2023-02-08T14:34:47.074Z,102067.20
2023-02-08T14:37:50.703Z,102065.82
2023-02-08T14:40:55.909Z,102067.70
2023-02-08T14:43:57.546Z,102066.39
2023-02-08T14:46:59.160Z,102061.81
2023-02-08T14:50:15.832Z,102064.71
2023-02-08T14:53:34.513Z,102066.20
2023-02-08T14:56:47.015Z,102070.36
2023-02-08T14:59:49.201Z,102069.38
2023-02-08T15:02:51.276Z,102070.88
2023-02-08T15:06:37.720Z,102073.04
2023-02-08T15:09:41.184Z,102069.15
2023-02-08T15:12:53.400Z,102070.69
2023-02-08T15:15:56.561Z,102068.52
2023-02-08T15:18:58.321Z,102068.96
2023-02-08T15:22:32.111Z,102065.99
2023-02-08T15:25:36.374Z,102071.70
2023-02-08T15:28:44.457Z,102068.58
2023-02-08T15:31:46.602Z,102066.87
2023-02-08T15:34:53.809Z,102058.45
2023-02-08T15:37:55.902Z,102059.23
2023-02-08T15:41:05.194Z,102057.40
2023-02-08T15:44:26.262Z,102059.15
2023-02-08T15:47:35.249Z,102060.55
2023-02-08T15:50:37.236Z,102059.72
2023-02-08T15:53:41.885Z,102058.14
2023-02-08T15:56:55.478Z,102062.80
2023-02-08T15:59:57.469Z,102059.06
2023-02-08T16:03:02.110Z,102061.59
2023-02-08T16:06:06.002Z,102063.15
2023-02-08T16:09:07.708Z,102065.52
2023-02-08T16:12:20.124Z,102064.05
2023-02-08T16:15:40.360Z,102066.31
2023-02-08T16:18:47.164Z,102067.30
2023-02-08T16:21:48.901Z,102066.38
2023-02-08T16:24:50.428Z,102071.09
2023-02-08T16:27:52.120Z,102067.30
2023-02-08T16:30:55.941Z,102070.48
2023-02-08T16:34:15.958Z,102067.59
2023-02-08T16:37:28.754Z,102067.24
2023-02-08T16:40:42.140Z,102070.37
2023-02-08T16:43:44.172Z,102062.05
2023-02-08T16:46:45.883Z,102063.98
2023-02-08T16:49:50.113Z,102061.33
2023-02-08T16:52:59.680Z,102056.55
2023-02-08T16:56:01.342Z,102062.34
2023-02-08T16:59:03.257Z,102064.41
2023-02-08T17:02:11.077Z,102061.92
2023-02-08T17:05:12.817Z,102067.16
2023-02-08T17:08:20.056Z,102064.70
2023-02-08T17:11:21.734Z,102065.79
2023-02-08T17:14:23.421Z,102063.80
2023-02-08T17:17:25.112Z,102067.38
2023-02-08T17:20:29.945Z,102063.69
2023-02-08T17:23:31.823Z,102061.69
2023-02-08T17:26:41.724Z,102067.51
2023-02-08T17:29:43.304Z,102071.52
2023-02-08T17:32:44.809Z,102075.58
2023-02-08T17:35:48.584Z,102068.95
2023-02-08T17:38:50.115Z,102071.05
2023-02-08T17:41:51.735Z,102072.35
2023-02-08T17:44:53.358Z,102071.45
2023-02-08T17:47:56.257Z,102066.30
2023-02-08T17:50:57.849Z,102064.02
2023-02-08T17:53:59.620Z,102069.48
2023-02-08T17:57:01.322Z,102062.59
2023-02-08T18:00:06.233Z,102062.91
2023-02-08T18:03:08.199Z,102064.29
2023-02-08T18:06:10.792Z,102067.02
2023-02-08T18:09:12.541Z,102069.96
2023-02-08T18:12:14.267Z,102072.13
2023-02-08T18:15:18.608Z,102075.97
2023-02-08T18:18:20.202Z,102077.72
2023-02-08T18:21:23.109Z,102077.91
2023-02-08T18:24:24.762Z,102071.48
2023-02-08T18:27:26.410Z,102071.88
2023-02-08T18:30:28.167Z,102074.04
2023-02-08T18:33:29.923Z,102075.54
2023-02-08T18:36:31.554Z,102074.77
2023-02-08T18:39:33.265Z,102077.01
2023-02-08T18:42:36.259Z,102077.41
2023-02-08T18:45:38.104Z,102078.25
2023-02-08T18:48:40.385Z,102081.40
2023-02-08T18:51:43.747Z,102078.39
2023-02-08T18:54:45.453Z,102081.77
2023-02-08T18:57:47.832Z,102082.71
2023-02-08T19:00:50.193Z,102080.62
2023-02-08T19:03:52.188Z,102081.74
2023-02-08T19:06:53.766Z,102080.73
2023-02-08T19:09:55.622Z,102076.95
2023-02-08T19:12:57.149Z,102079.14
2023-02-08T19:15:58.911Z,102076.56
2023-02-08T19:19:01.400Z,102072.16
2023-02-08T19:22:02.969Z,102075.58
2023-02-08T19:25:04.847Z,102078.48
2023-02-08T19:28:06.745Z,102072.23
2023-02-08T19:31:11.319Z,102073.05
2023-02-08T19:34:13.407Z,102071.97
2023-02-08T19:37:15.281Z,102068.23
2023-02-08T19:40:17.469Z,102067.48
2023-02-08T19:43:18.976Z,102070.04
2023-02-08T19:46:23.205Z,102067.81
2023-02-08T19:49:24.874Z,102062.98
2023-02-08T19:52:26.501Z,102059.16
2023-02-08T19:55:28.092Z,102055.21
2023-02-08T19:58:31.060Z,102048.54
2023-02-08T20:01:34.211Z,102047.66
2023-02-08T20:04:35.836Z,102045.98
2023-02-08T20:07:37.394Z,102041.16
2023-02-08T20:10:43.879Z,102039.91
2023-02-08T20:13:45.903Z,102040.66
2023-02-08T20:16:47.607Z,102036.23
2023-02-08T20:19:49.241Z,102033.40
2023-02-08T20:22:51.126Z,102036.13
2023-02-08T20:26:02.325Z,102036.69
2023-02-08T20:29:04.302Z,102033.20
2023-02-08T20:32:06.245Z,102035.28
2023-02-08T20:35:08.040Z,102034.27
2023-02-08T20:38:09.637Z,102035.41
2023-02-08T20:41:13.727Z,102038.68
2023-02-08T20:44:17.749Z,102045.05
2023-02-08T20:47:19.720Z,102043.11
2023-02-08T20:50:21.283Z,102041.31
2023-02-08T20:53:22.929Z,102035.27
2023-02-08T20:56:29.597Z,102027.48
2023-02-08T20:59:31.532Z,102025.96
2023-02-08T21:02:33.097Z,102026.64
2023-02-08T21:05:34.796Z,102026.83
2023-02-08T21:08:36.415Z,102021.95
2023-02-08T21:11:38.517Z,102022.16
2023-02-08T21:14:40.170Z,102026.03
2023-02-08T21:17:42.103Z,102027.55
2023-02-08T21:20:44.059Z,102024.83
2023-02-08T21:23:46.584Z,102021.88
2023-02-08T21:26:48.233Z,102021.27
2023-02-08T21:29:51.327Z,102014.16
2023-02-08T21:32:52.980Z,102009.48
2023-02-08T21:35:54.859Z,102011.03
2023-02-08T21:38:59.349Z,102007.77
2023-02-08T21:42:00.918Z,102006.52
2023-02-08T21:45:02.707Z,102002.07
2023-02-08T21:48:04.775Z,102000.19
2023-02-08T21:51:06.475Z,101998.58
2023-02-08T21:54:12.655Z,101992.04
2023-02-08T21:57:23.712Z,101988.45
2023-02-08T22:00:25.324Z,101990.36
2023-02-08T22:03:27.007Z,101986.05
2023-02-08T22:06:28.598Z,101978.59
2023-02-08T22:09:30.452Z,101971.41
2023-02-08T22:12:31.980Z,101964.92
2023-02-08T22:15:33.509Z,101961.79
2023-02-08T22:18:35.098Z,101956.87
2023-02-08T22:21:36.636Z,101956.16
2023-02-08T22:24:38.358Z,101960.45
2023-02-08T22:27:39.880Z,101963.09
2023-02-08T22:30:41.452Z,101963.54
2023-02-08T22:33:43.131Z,101965.68
2023-02-08T22:36:44.696Z,101963.28
2023-02-08T22:39:46.305Z,101965.89
2023-02-08T22:42:47.947Z,101969.23
2023-02-08T22:45:59.686Z,101962.20
2023-02-08T22:49:01.308Z,101967.26
2023-02-08T22:52:04.153Z,101963.17
2023-02-08T22:55:06.245Z,101962.48
2023-02-08T22:58:07.838Z,101966.35
2023-02-08T23:01:15.192Z,101966.70
2023-02-08T23:04:16.838Z,101961.89
2023-02-08T23:07:18.594Z,101956.31
2023-02-08T23:10:20.225Z,101949.41
2023-02-08T23:13:21.777Z,101943.23
2023-02-08T23:16:23.539Z,101936.66
2023-02-08T23:19:25.157Z,101935.30
2023-02-08T23:22:26.822Z,101936.84
2023-02-08T23:25:28.523Z,101932.42
2023-02-08T23:28:30.136Z,101926.70
2023-02-08T23:31:32.060Z,101924.06
2023-02-08T23:34:34.764Z,101929.55
2023-02-08T23:37:36.609Z,101929.70
2023-02-08T23:40:40.316Z,101931.30
2023-02-08T23:43:42.717Z,101926.73
2023-02-08T23:46:44.314Z,101924.77
2023-02-08T23:49:46.037Z,101926.01
2023-02-08T23:52:47.643Z,101924.40
2023-02-08T23:55:49.172Z,101928.83
2023-02-08T23:58:53.322Z,101919.56
